Time;durP1;ratioP1;P1;durP2;ratioP2;P2;SDS_P1;SDS_P2;PMS_P1;PMS_P2;Temp;Humidity;BMP_temperature;BMP_pressure;BME280_temperature;BME280_humidity;BME280_pressure;Samples;Min_cycle;Max_cycle;Signal;HPM_P1;HPM_P2
2021/09/06 00:00:03;;;;;;;;;;;25.40;99.90;;;;;;1969105;71;20263;-91
2021/09/06 00:02:38;;;;;;;;;;;25.50;99.90;;;;;;1971349;71;20234;-89
2021/09/06 00:05:11;;;;;;;;;;;25.50;99.90;;;;;;1957471;73;20096;-91
2021/09/06 00:07:59;;;;;;;;;;;25.50;99.90;;;;;;1949024;73;20247;-92
2021/09/06 00:10:31;;;;;;;;;;;25.60;99.90;;;;;;1945943;72;20216;-92
2021/09/06 00:13:19;;;;;;;;;;;25.60;99.90;;;;;;1943862;72;20156;-90
2021/09/06 00:16:08;;;;;;;;;;;25.60;99.90;;;;;;1879801;72;20243;-91
2021/09/06 00:32:49;;;;;;;;;;;25.70;99.90;;;;;;1940333;73;20101;-92
2021/09/06 00:35:37;;;;;;;;;;;25.80;99.90;;;;;;1932510;73;20197;-93
2021/09/06 00:38:12;;;;;;;;;;;25.80;99.90;;;;;;1926976;73;20255;-93
2021/09/06 00:41:04;;;;;;;;;;;25.80;99.90;;;;;;1926233;71;20162;-93
2021/09/06 00:44:01;;;;;;;;;;;25.80;99.90;;;;;;1928252;73;20196;-93
2021/09/06 00:46:48;;;;;;;;;;;25.80;99.90;;;;;;1875974;73;20131;-92
2021/09/06 00:49:20;;;;;;;;;;;25.80;99.90;;;;;;1886896;74;20280;-92
2021/09/06 00:52:09;;;;;;;;;;;25.80;99.90;;;;;;1890623;74;20152;-91
2021/09/06 00:54:50;;;;;;;;;;;25.80;99.90;;;;;;1887272;74;20240;-92
2021/09/06 00:57:38;;;;;;;;;;;25.80;99.90;;;;;;1891310;74;20247;-90
2021/09/06 01:02:03;;;;;;;;;;;25.80;99.90;;;;;;1892365;74;20194;-91
2021/09/06 01:06:26;;;;;;;;;;;25.80;99.90;;;;;;1823517;77;20215;-83
2021/09/06 01:09:21;;;;;;;;;;;25.80;99.90;;;;;;1746854;81;20241;-83
2021/09/06 01:18:10;;;;;;;;;;;25.80;99.90;;;;;;1942956;72;20384;-81
2021/09/06 01:23:47;;;;;;;;;;;;;;;;;;;;;
2021/09/06 01:26:50;;;;;;;;;;;25.90;99.90;;;;;;1804051;78;20173;-83
2021/09/06 01:30:08;;;;;;;;;;;26.00;99.90;;;;;;1803211;77;20231;-82
2021/09/06 01:32:12;;;;;;;;;;;26.00;99.90;;;;;;1780077;78;20245;-83
2021/09/06 01:34:43;;;;;;;;;;;26.10;99.90;;;;;;1806728;78;20385;-82
2021/09/06 01:37:12;;;;;;;;;;;26.10;99.90;;;;;;1803662;78;20189;-82
2021/09/06 01:39:45;;;;;;;;;;;26.20;99.90;;;;;;1805567;78;20224;-83
2021/09/06 01:42:17;;;;;;;;;;;26.20;99.90;;;;;;1805576;78;20204;-82
2021/09/06 01:44:47;;;;;;;;;;;26.30;99.90;;;;;;1767676;79;20183;-82
2021/09/06 01:47:17;;;;;;;;;;;26.40;99.90;;;;;;1752738;80;20242;-82
2021/09/06 01:49:46;;;;;;;;;;;26.50;99.90;;;;;;1773659;79;20222;-83
2021/09/06 01:52:16;;;;;;;;;;;26.60;99.90;;;;;;1786309;79;20156;-83
2021/09/06 01:54:45;;;;;;;;;;;26.70;99.90;;;;;;1788593;78;20304;-83
2021/09/06 01:57:15;;;;;;;;;;;26.80;99.90;;;;;;1787427;78;20202;-80
2021/09/06 01:59:45;;;;;;;;;;;26.90;99.90;;;;;;1788674;74;20139;-81
2021/09/06 02:02:14;;;;;;;;;;;27.00;99.90;;;;;;1904753;74;20223;-84
2021/09/06 02:04:44;;;;;;;;;;;27.10;99.90;;;;;;1908133;74;20217;-80
2021/09/06 02:07:14;;;;;;;;;;;27.10;99.90;;;;;;1901358;74;20116;-82
2021/09/06 02:09:44;;;;;;;;;;;27.20;99.90;;;;;;1904705;74;20249;-82
2021/09/06 02:12:14;;;;;;;;;;;27.30;99.90;;;;;;1918712;74;20330;-80
2021/09/06 02:14:43;;;;;;;;;;;27.30;99.90;;;;;;1926650;73;20448;-80
2021/09/06 02:17:13;;;;;;;;;;;27.30;99.90;;;;;;1927431;73;20191;-83
2021/09/06 02:19:42;;;;;;;;;;;27.40;99.90;;;;;;1933628;73;20533;-81
2021/09/06 02:22:12;;;;;;;;;;;27.50;99.90;;;;;;1923301;73;20193;-81
2021/09/06 02:24:42;;;;;;;;;;;27.60;99.90;;;;;;1937804;73;20220;-81
2021/09/06 02:27:13;;;;;;;;;;;27.70;99.90;;;;;;1950051;73;20185;-81
2021/09/06 02:29:43;;;;;;;;;;;27.80;99.90;;;;;;1939102;73;20438;-83
2021/09/06 02:32:12;;;;;;;;;;;27.90;99.90;;;;;;1935208;73;20171;-83
2021/09/06 02:34:42;;;;;;;;;;;27.90;99.90;;;;;;1929467;73;20503;-81
2021/09/06 02:37:11;;;;;;;;;;;28.00;99.90;;;;;;1935385;73;20195;-82
2021/09/06 02:39:41;;;;;;;;;;;28.00;99.90;;;;;;1931117;73;20114;-81
2021/09/06 02:42:10;;;;;;;;;;;27.90;99.90;;;;;;1933887;73;20161;-81
2021/09/06 02:44:40;;;;;;;;;;;28.00;99.90;;;;;;1935634;73;20248;-81
2021/09/06 02:47:10;;;;;;;;;;;28.00;99.90;;;;;;1933819;73;20205;-84
2021/09/06 02:49:41;;;;;;;;;;;28.00;99.90;;;;;;1941196;73;20221;-82
2021/09/06 02:52:12;;;;;;;;;;;28.00;99.90;;;;;;1931899;73;20295;-82
2021/09/06 02:54:42;;;;;;;;;;;28.10;99.90;;;;;;1936130;73;20241;-81
2021/09/06 02:57:19;;;;;;;;;;;28.30;99.90;;;;;;1939681;73;20206;-80
2021/09/06 02:59:50;;;;;;;;;;;28.50;99.90;;;;;;1942029;73;20217;-81
2021/09/06 03:02:26;;;;;;;;;;;28.70;99.90;;;;;;1931740;73;20180;-81
2021/09/06 03:04:58;;;;;;;;;;;28.80;99.90;;;;;;1942708;73;20226;-82
2021/09/06 03:07:29;;;;;;;;;;;28.80;99.90;;;;;;1935782;73;20307;-82
2021/09/06 03:09:59;;;;;;;;;;;28.80;99.90;;;;;;1930716;73;20206;-83
2021/09/06 03:12:30;;;;;;;;;;;28.80;99.90;;;;;;1932573;73;20210;-83
2021/09/06 03:15:01;;;;;;;;;;;28.90;99.90;;;;;;1926596;73;20182;-83
2021/09/06 03:17:31;;;;;;;;;;;29.00;99.80;;;;;;1933141;73;20277;-84
2021/09/06 03:20:03;;;;;;;;;;;29.10;99.20;;;;;;1922593;73;20224;-83
2021/09/06 03:22:33;;;;;;;;;;;29.20;99.90;;;;;;1900775;73;20227;-82
2021/09/06 03:25:04;;;;;;;;;;;29.10;99.80;;;;;;1934609;73;20124;-83
2021/09/06 03:27:34;;;;;;;;;;;29.10;99.60;;;;;;1890241;75;20237;-84
2021/09/06 03:30:04;;;;;;;;;;;29.10;99.20;;;;;;1918658;73;20480;-82
2021/09/06 03:32:33;;;;;;;;;;;29.10;99.20;;;;;;1905140;74;20185;-82
2021/09/06 03:35:03;;;;;;;;;;;29.10;99.20;;;;;;1871405;76;20193;-83
2021/09/06 03:37:33;;;;;;;;;;;29.00;99.20;;;;;;1923260;74;20191;-82
2021/09/06 03:40:03;;;;;;;;;;;29.00;99.70;;;;;;1908564;74;20157;-80
2021/09/06 03:42:33;;;;;;;;;;;29.00;99.90;;;;;;1900503;73;20157;-81
2021/09/06 03:45:03;;;;;;;;;;;29.00;99.90;;;;;;1903085;75;20130;-81
2021/09/06 03:47:33;;;;;;;;;;;29.10;99.30;;;;;;1903910;74;20127;-83
2021/09/06 03:50:03;;;;;;;;;;;29.20;99.30;;;;;;1901661;73;20170;-82
2021/09/06 03:52:33;;;;;;;;;;;29.30;99.50;;;;;;1909950;73;20178;-83
2021/09/06 03:55:02;;;;;;;;;;;29.40;99.10;;;;;;1882319;76;20257;-84
2021/09/06 03:57:32;;;;;;;;;;;29.50;99.50;;;;;;1925208;73;20473;-84
2021/09/06 04:00:03;;;;;;;;;;;29.70;98.60;;;;;;1929952;73;20155;-83
2021/09/06 04:02:33;;;;;;;;;;;29.90;98.50;;;;;;1923946;73;20155;-82
2021/09/06 04:05:03;;;;;;;;;;;30.00;98.40;;;;;;1915881;74;20600;-83
2021/09/06 04:07:33;;;;;;;;;;;30.10;98.20;;;;;;1932222;73;20152;-83
2021/09/06 04:10:04;;;;;;;;;;;;;;;;;;1930682;74;20242;-84
2021/09/06 04:12:47;;;;;;;;;;;;;;;;;;1900662;73;20270;-83
2021/09/06 04:15:18;;;;;;;;;;;;;;;;;;1891699;74;20200;-84
2021/09/06 04:17:49;;;;;;;;;;;;;;;;;;1886283;75;20473;-85
2021/09/06 04:20:18;;;;;;;;;;;;;;;;;;1935436;73;20489;-85
2021/09/06 04:22:48;;;;;;;;;;;30.70;95.80;;;;;;1912810;74;20259;-85
2021/09/06 04:25:18;;;;;;;;;;;30.70;95.40;;;;;;1918269;73;20120;-84
2021/09/06 04:28:14;;;;;;;;;;;30.90;94.90;;;;;;1911619;74;20199;-82
2021/09/06 04:30:46;;;;;;;;;;;30.90;95.10;;;;;;1947838;73;20332;-84
2021/09/06 04:33:17;;;;;;;;;;;31.00;96.10;;;;;;1946978;73;20190;-83
2021/09/06 04:35:46;;;;;;;;;;;31.10;95.50;;;;;;1945382;73;20165;-84
2021/09/06 04:38:16;;;;;;;;;;;31.20;96.00;;;;;;1908107;74;20207;-84
2021/09/06 04:40:45;;;;;;;;;;;31.20;93.40;;;;;;1949561;73;20124;-81
2021/09/06 04:43:18;;;;;;;;;;;31.20;92.90;;;;;;1949242;73;20421;-82
2021/09/06 04:45:46;;;;;;;;;;;31.20;94.40;;;;;;1948996;73;20171;-82
2021/09/06 04:48:16;;;;;;;;;;;31.20;93.80;;;;;;1912100;74;20225;-82
2021/09/06 04:50:45;;;;;;;;;;;31.20;93.70;;;;;;1907672;75;20184;-82
2021/09/06 04:53:15;;;;;;;;;;;31.30;93.90;;;;;;1981355;71;20143;-82
2021/09/06 04:55:44;;;;;;;;;;;31.30;94.20;;;;;;1983971;71;20214;-84
2021/09/06 04:58:14;;;;;;;;;;;31.40;93.60;;;;;;1996828;71;20243;-84
2021/09/06 05:00:44;;;;;;;;;;;31.50;94.00;;;;;;1988907;71;20202;-82
2021/09/06 05:03:14;;;;;;;;;;;31.50;93.90;;;;;;1992770;71;20205;-83
2021/09/06 05:05:44;;;;;;;;;;;31.60;93.80;;;;;;1988332;71;20204;-83
2021/09/06 05:08:32;;;;;;;;;;;31.60;92.60;;;;;;1987606;71;20155;-83
2021/09/06 05:11:04;;;;;;;;;;;31.60;94.00;;;;;;1988553;71;20693;-84
2021/09/06 05:13:36;;;;;;;;;;;31.70;93.50;;;;;;1992945;70;20195;-82
2021/09/06 05:16:06;;;;;;;;;;;31.70;93.40;;;;;;1987986;70;20119;-83
2021/09/06 05:18:36;;;;;;;;;;;31.70;92.40;;;;;;1986808;71;20185;-83
2021/09/06 05:21:06;;;;;;;;;;;31.80;91.50;;;;;;1972609;71;20122;-82
2021/09/06 05:23:36;;;;;;;;;;;31.80;92.10;;;;;;1967598;71;20121;-83
2021/09/06 05:26:08;;;;;;;;;;;31.80;92.30;;;;;;1977608;71;20227;-82
2021/09/06 05:28:41;;;;;;;;;;;31.90;92.00;;;;;;1967351;71;20210;-82
2021/09/06 05:31:13;;;;;;;;;;;31.90;92.60;;;;;;1976416;71;20224;-84
2021/09/06 05:33:42;;;;;;;;;;;31.90;92.30;;;;;;1974089;72;20262;-82
2021/09/06 05:36:15;;;;;;;;;;;31.90;92.20;;;;;;1967605;71;20177;-83
2021/09/06 05:38:43;;;;;;;;;;;32.10;92.50;;;;;;1880495;75;20271;-82
2021/09/06 05:41:17;;;;;;;;;;;32.10;91.60;;;;;;1889944;75;20164;-82
2021/09/06 05:43:46;;;;;;;;;;;32.10;91.50;;;;;;1906547;75;20177;-82
2021/09/06 05:46:16;;;;;;;;;;;32.10;91.30;;;;;;1931447;73;20126;-82
2021/09/06 05:48:45;;;;;;;;;;;32.10;90.60;;;;;;1923653;75;20165;-83
2021/09/06 05:53:53;;;;;;;;;;;32.10;90.90;;;;;;1939732;74;20217;-80
2021/09/06 05:56:22;;;;;;;;;;;32.10;91.00;;;;;;1942253;74;20153;-83
2021/09/06 05:58:52;;;;;;;;;;;32.20;90.40;;;;;;1960124;73;20165;-83
2021/09/06 06:01:23;;;;;;;;;;;32.20;90.30;;;;;;1963110;73;20533;-83
2021/09/06 06:03:53;;;;;;;;;;;32.20;90.10;;;;;;1956748;73;20175;-84
2021/09/06 06:06:26;;;;;;;;;;;32.20;90.90;;;;;;1959886;73;20469;-84
2021/09/06 06:08:56;;;;;;;;;;;32.20;89.50;;;;;;1963731;73;20190;-82
2021/09/06 06:11:25;;;;;;;;;;;32.20;90.00;;;;;;1963084;73;20218;-82
2021/09/06 06:13:55;;;;;;;;;;;32.20;90.50;;;;;;1939933;73;20199;-84
2021/09/06 06:16:25;;;;;;;;;;;32.20;91.40;;;;;;1963998;73;20191;-83
2021/09/06 06:18:54;;;;;;;;;;;32.30;91.40;;;;;;1950867;73;20204;-83
2021/09/06 06:21:24;;;;;;;;;;;32.40;90.60;;;;;;1937249;74;20130;-82
2021/09/06 06:23:54;;;;;;;;;;;32.40;88.80;;;;;;1954224;72;20147;-84
2021/09/06 06:26:23;;;;;;;;;;;32.40;88.80;;;;;;1974010;73;20174;-82
2021/09/06 06:28:53;;;;;;;;;;;32.50;89.90;;;;;;1963090;73;20147;-83
2021/09/06 06:31:23;;;;;;;;;;;32.50;89.30;;;;;;1964061;73;20080;-82
2021/09/06 06:33:53;;;;;;;;;;;32.50;87.80;;;;;;1963047;73;20123;-83
2021/09/06 06:36:22;;;;;;;;;;;32.50;88.60;;;;;;1964703;73;20236;-84
2021/09/06 06:38:55;;;;;;;;;;;32.50;89.40;;;;;;1963459;73;20263;-82
2021/09/06 06:41:24;;;;;;;;;;;32.50;88.60;;;;;;1944803;73;20130;-82
2021/09/06 06:43:54;;;;;;;;;;;32.50;89.10;;;;;;1932861;73;20183;-83
2021/09/06 06:46:25;;;;;;;;;;;32.50;89.40;;;;;;1963735;73;20136;-83
2021/09/06 06:48:55;;;;;;;;;;;32.40;87.30;;;;;;1963314;73;20179;-83
2021/09/06 06:51:25;;;;;;;;;;;32.40;89.60;;;;;;1962555;73;20206;-82
2021/09/06 06:53:55;;;;;;;;;;;32.40;86.30;;;;;;1939084;74;20376;-82
2021/09/06 06:56:24;;;;;;;;;;;32.30;86.50;;;;;;1937852;73;20208;-83
2021/09/06 06:58:54;;;;;;;;;;;32.30;86.50;;;;;;1953956;73;20116;-82
2021/09/06 07:01:23;;;;;;;;;;;32.30;90.40;;;;;;1955300;73;20128;-82
2021/09/06 07:03:55;;;;;;;;;;;32.30;86.60;;;;;;1928802;74;20110;-82
2021/09/06 07:06:26;;;;;;;;;;;32.30;89.10;;;;;;1929201;74;20126;-85
2021/09/06 07:08:56;;;;;;;;;;;32.40;86.70;;;;;;1958307;73;20195;-83
2021/09/06 07:11:25;;;;;;;;;;;32.40;85.20;;;;;;1936563;74;20156;-82
2021/09/06 07:13:54;;;;;;;;;;;32.30;85.50;;;;;;1934998;74;20173;-83
2021/09/06 07:16:24;;;;;;;;;;;32.30;87.40;;;;;;1933284;74;20130;-80
2021/09/06 07:18:54;;;;;;;;;;;32.30;85.10;;;;;;1938991;73;20120;-80
2021/09/06 07:21:23;;;;;;;;;;;32.30;85.90;;;;;;1947259;73;20128;-81
2021/09/06 07:23:53;;;;;;;;;;;32.30;84.20;;;;;;1946312;73;20169;-80
2021/09/06 07:26:23;;;;;;;;;;;32.30;84.70;;;;;;1935008;74;20133;-82
2021/09/06 07:28:53;;;;;;;;;;;32.30;84.30;;;;;;1936092;74;20222;-83
2021/09/06 07:31:23;;;;;;;;;;;32.30;85.50;;;;;;1941789;73;20218;-83
2021/09/06 07:33:54;;;;;;;;;;;32.30;84.60;;;;;;1940300;73;20170;-82
2021/09/06 07:36:32;;;;;;;;;;;32.30;84.80;;;;;;1942499;73;20162;-84
2021/09/06 07:39:02;;;;;;;;;;;32.30;85.40;;;;;;1931968;74;20192;-84
2021/09/06 07:41:32;;;;;;;;;;;32.40;84.80;;;;;;1937102;73;20434;-84
2021/09/06 07:44:05;;;;;;;;;;;32.40;86.20;;;;;;1951777;73;20248;-84
2021/09/06 07:46:34;;;;;;;;;;;32.40;87.50;;;;;;1945941;73;20195;-84
2021/09/06 07:49:04;;;;;;;;;;;32.40;84.80;;;;;;1943264;73;20114;-83
2021/09/06 07:51:37;;;;;;;;;;;32.40;84.70;;;;;;1943305;73;20214;-84
2021/09/06 07:54:07;;;;;;;;;;;32.40;83.70;;;;;;1947703;73;20224;-83
2021/09/06 07:56:38;;;;;;;;;;;32.30;84.10;;;;;;1940132;73;20189;-83
2021/09/06 07:59:07;;;;;;;;;;;32.20;84.50;;;;;;1914316;74;20152;-82
2021/09/06 08:01:39;;;;;;;;;;;32.20;86.60;;;;;;1897115;76;20219;-86
2021/09/06 08:04:08;;;;;;;;;;;32.20;84.30;;;;;;1857747;76;20134;-83
2021/09/06 08:06:39;;;;;;;;;;;32.20;83.90;;;;;;1854238;77;20134;-83
2021/09/06 08:09:09;;;;;;;;;;;32.20;84.30;;;;;;1852244;76;20212;-82
2021/09/06 08:11:39;;;;;;;;;;;32.20;87.40;;;;;;1867473;76;20207;-84
2021/09/06 08:14:10;;;;;;;;;;;32.20;86.90;;;;;;1866952;76;20120;-81
2021/09/06 08:16:40;;;;;;;;;;;32.10;87.90;;;;;;1904169;74;20165;-83
2021/09/06 08:19:11;;;;;;;;;;;32.10;90.30;;;;;;1873949;76;20310;-82
2021/09/06 08:21:40;;;;;;;;;;;32.00;90.10;;;;;;1881907;76;20200;-81
2021/09/06 08:24:11;;;;;;;;;;;32.00;88.50;;;;;;1867059;76;20153;-82
2021/09/06 08:26:41;;;;;;;;;;;32.00;87.40;;;;;;1905279;74;20176;-83
2021/09/06 08:29:11;;;;;;;;;;;31.90;86.80;;;;;;1879973;76;20150;-80
2021/09/06 08:31:41;;;;;;;;;;;31.90;86.90;;;;;;1903333;74;20120;-80
2021/09/06 08:34:11;;;;;;;;;;;31.90;86.50;;;;;;1865935;76;20193;-83
2021/09/06 08:36:41;;;;;;;;;;;31.90;87.40;;;;;;1881620;76;20142;-84
2021/09/06 08:39:11;;;;;;;;;;;31.80;87.80;;;;;;1867585;76;20221;-83
2021/09/06 08:41:43;;;;;;;;;;;31.70;86.80;;;;;;1863367;76;20223;-82
2021/09/06 08:44:13;;;;;;;;;;;31.70;87.30;;;;;;1865846;76;20190;-83
2021/09/06 08:46:43;;;;;;;;;;;31.70;87.70;;;;;;1873335;76;20186;-82
2021/09/06 08:49:13;;;;;;;;;;;31.70;89.00;;;;;;1861932;76;20239;-82
2021/09/06 08:52:05;;;;;;;;;;;31.80;89.60;;;;;;1865998;76;20120;-83
2021/09/06 08:54:32;;;;;;;;;;;31.80;89.20;;;;;;1849338;77;20177;-83
2021/09/06 08:57:03;;;;;;;;;;;31.80;88.40;;;;;;1872069;75;20565;-83
2021/09/06 08:59:34;;;;;;;;;;;31.70;87.50;;;;;;1874580;76;20250;-82
2021/09/06 09:02:10;;;;;;;;;;;31.50;87.90;;;;;;1877131;75;20189;-82
2021/09/06 09:04:49;;;;;;;;;;;31.20;88.70;;;;;;1878055;76;20318;-83
2021/09/06 09:07:20;;;;;;;;;;;30.90;89.80;;;;;;1876858;75;20201;-82
2021/09/06 09:10:38;;;;;;;;;;;;;;;;;;;;;
2021/09/06 09:13:21;;;;;;;;;;;30.20;91.70;;;;;;1791642;79;20553;-83
2021/09/06 09:15:57;;;;;;;;;;;29.80;94.10;;;;;;1796938;79;20232;-82
2021/09/06 09:18:44;;;;;;;;;;;29.40;95.70;;;;;;1794991;79;20287;-82
2021/09/06 09:21:36;;;;;;;;;;;29.00;96.20;;;;;;1717238;83;20225;-79
2021/09/06 09:24:10;;;;;;;;;;;28.50;96.80;;;;;;1714471;83;20235;-80
2021/09/06 09:26:58;;;;;;;;;;;28.10;97.60;;;;;;1707514;83;20224;-79
2021/09/06 09:29:27;;;;;;;;;;;27.80;97.90;;;;;;1706722;84;20536;-80
2021/09/06 09:32:00;;;;;;;;;;;27.70;98.10;;;;;;1706511;83;20663;-81
2021/09/06 09:34:49;;;;;;;;;;;27.60;98.50;;;;;;1707889;83;20319;-81
2021/09/06 09:37:22;;;;;;;;;;;27.60;98.90;;;;;;1713866;83;20253;-82
2021/09/06 09:39:54;;;;;;;;;;;27.60;99.40;;;;;;1696718;83;20198;-81
2021/09/06 09:42:24;;;;;;;;;;;27.70;99.30;;;;;;1703143;83;20329;-82
2021/09/06 09:44:55;;;;;;;;;;;27.70;99.30;;;;;;1754718;80;20671;-81
2021/09/06 09:47:26;;;;;;;;;;;27.80;99.90;;;;;;1760935;80;20615;-81
2021/09/06 09:50:00;;;;;;;;;;;27.80;99.90;;;;;;1762711;80;20271;-81
2021/09/06 09:52:27;;;;;;;;;;;27.70;99.90;;;;;;1804878;76;20185;-82
2021/09/06 09:54:57;;;;;;;;;;;27.50;99.90;;;;;;1872591;75;20185;-81
2021/09/06 09:57:33;;;;;;;;;;;27.40;99.90;;;;;;1903692;73;20130;-80
2021/09/06 10:00:05;;;;;;;;;;;27.40;99.90;;;;;;1930883;74;20216;-81
2021/09/06 10:02:34;;;;;;;;;;;27.30;99.90;;;;;;1933937;74;20289;-82
2021/09/06 10:05:05;;;;;;;;;;;27.20;99.90;;;;;;1930924;73;20231;-82
2021/09/06 10:07:37;;;;;;;;;;;27.30;99.90;;;;;;1934349;74;20255;-82
2021/09/06 10:10:07;;;;;;;;;;;27.30;99.90;;;;;;1933130;73;20263;-82
2021/09/06 10:12:37;;;;;;;;;;;27.30;99.90;;;;;;1918912;74;20124;-80
2021/09/06 10:15:07;;;;;;;;;;;27.30;99.90;;;;;;1934646;74;20160;-82
2021/09/06 10:17:40;;;;;;;;;;;27.40;99.90;;;;;;1925362;74;20211;-82
2021/09/06 10:20:10;;;;;;;;;;;27.40;99.90;;;;;;1928453;74;20161;-81
2021/09/06 10:22:41;;;;;;;;;;;27.40;99.90;;;;;;1934057;74;20130;-80
2021/09/06 10:25:12;;;;;;;;;;;27.40;99.90;;;;;;1935632;74;20239;-89
2021/09/06 10:27:48;;;;;;;;;;;27.40;99.90;;;;;;1865903;77;20269;-89
2021/09/06 10:30:37;;;;;;;;;;;27.40;99.90;;;;;;1883455;74;20714;-89
2021/09/06 10:33:11;;;;;;;;;;;27.40;99.90;;;;;;1898116;76;20110;-89
2021/09/06 10:36:00;;;;;;;;;;;27.40;99.90;;;;;;1834928;76;20120;-92
2021/09/06 10:38:48;;;;;;;;;;;27.40;99.90;;;;;;1870376;76;20153;-87
2021/09/06 10:41:22;;;;;;;;;;;27.30;99.90;;;;;;1871834;76;20265;-90
2021/09/06 10:44:09;;;;;;;;;;;27.20;99.90;;;;;;1869644;75;20221;-90
2021/09/06 10:46:45;;;;;;;;;;;27.10;99.90;;;;;;1876728;76;20239;-91
2021/09/06 10:49:32;;;;;;;;;;;27.00;99.90;;;;;;1874668;75;20192;-89
2021/09/06 10:56:12;;;;;;;;;;;26.80;99.90;;;;;;1745555;80;20220;-94
2021/09/06 10:58:21;;;;;;;;;;;26.70;99.90;;;;;;1743017;81;20651;-88
2021/09/06 11:01:12;;;;;;;;;;;26.80;99.90;;;;;;1750317;80;20253;-89
2021/09/06 11:04:01;;;;;;;;;;;26.80;99.90;;;;;;1723516;81;20157;-89
2021/09/06 11:06:48;;;;;;;;;;;26.80;99.90;;;;;;1734901;81;20209;-90
2021/09/06 11:09:37;;;;;;;;;;;26.90;99.90;;;;;;1739279;81;20187;-88
2021/09/06 11:12:21;;;;;;;;;;;26.90;99.90;;;;;;1739357;79;20215;-90
2021/09/06 11:15:18;;;;;;;;;;;;;;;;;;;;;
2021/09/06 11:17:58;;;;;;;;;;;26.70;99.90;;;;;;1791047;77;20115;-91
2021/09/06 11:20:46;;;;;;;;;;;26.70;99.90;;;;;;1749552;80;20111;-90
2021/09/06 11:23:44;;;;;;;;;;;26.70;99.90;;;;;;1718757;82;20170;-90
2021/09/06 11:26:35;;;;;;;;;;;26.60;99.90;;;;;;1715390;81;20184;-91
2021/09/06 11:29:23;;;;;;;;;;;26.60;99.90;;;;;;1738527;81;20276;-90
2021/09/06 11:32:11;;;;;;;;;;;26.60;99.90;;;;;;1779721;76;20262;-91
2021/09/06 11:35:09;;;;;;;;;;;;;;;;;;;;;
2021/09/06 11:37:58;;;;;;;;;;;;;;;;;;;;;
2021/09/06 11:40:41;;;;;;;;;;;26.50;99.90;;;;;;1793145;77;20239;-90
2021/09/06 11:43:26;;;;;;;;;;;26.50;99.90;;;;;;1846558;76;20263;-92
2021/09/06 11:46:17;;;;;;;;;;;26.50;99.90;;;;;;1808711;78;20248;-91
2021/09/06 11:49:04;;;;;;;;;;;26.50;99.90;;;;;;1860672;73;20220;-90
2021/09/06 11:51:36;;;;;;;;;;;26.50;99.90;;;;;;1936921;73;20208;-89
2021/09/06 11:54:58;;;;;;;;;;;26.50;99.90;;;;;;1948117;71;20195;-90
2021/09/06 11:57:48;;;;;;;;;;;26.50;99.90;;;;;;1952742;70;20140;-91
2021/09/06 12:00:38;;;;;;;;;;;26.50;99.90;;;;;;1948105;73;20227;-89
2021/09/06 12:03:29;;;;;;;;;;;26.50;99.90;;;;;;1924331;73;20098;-88
2021/09/06 12:06:16;;;;;;;;;;;26.50;99.90;;;;;;1899226;73;20231;-90
2021/09/06 12:09:06;;;;;;;;;;;26.40;99.90;;;;;;1837495;75;20199;-89
2021/09/06 12:11:56;;;;;;;;;;;26.40;99.90;;;;;;1865559;75;20218;-90
2021/09/06 12:14:25;;;;;;;;;;;26.40;99.90;;;;;;1824672;75;20221;-89
2021/09/06 12:16:59;;;;;;;;;;;26.30;99.90;;;;;;1837974;78;20167;-89
2021/09/06 12:19:49;;;;;;;;;;;26.40;99.90;;;;;;1843636;78;20273;-88
2021/09/06 12:22:39;;;;;;;;;;;26.40;99.90;;;;;;1833585;77;20213;-89
2021/09/06 12:25:13;;;;;;;;;;;26.50;99.90;;;;;;1832118;78;20187;-89
2021/09/06 12:27:48;;;;;;;;;;;26.40;99.90;;;;;;1835883;77;20255;-88
2021/09/06 12:30:35;;;;;;;;;;;26.40;99.90;;;;;;1834246;78;20213;-89
2021/09/06 12:33:23;;;;;;;;;;;26.40;99.90;;;;;;1830053;78;20154;-90
2021/09/06 12:38:51;;;;;;;;;;;26.30;99.90;;;;;;1822671;73;20169;-82
2021/09/06 12:41:22;;;;;;;;;;;26.20;99.90;;;;;;1810865;78;20159;-84
2021/09/06 12:43:54;;;;;;;;;;;26.20;99.90;;;;;;1783069;79;20183;-84
2021/09/06 12:46:24;;;;;;;;;;;26.20;99.90;;;;;;1778502;80;20242;-84
2021/09/06 12:48:54;;;;;;;;;;;26.20;99.90;;;;;;1783553;78;20175;-85
2021/09/06 12:51:26;;;;;;;;;;;26.20;99.90;;;;;;1778568;79;20191;-84
2021/09/06 12:53:57;;;;;;;;;;;26.20;99.90;;;;;;1829535;77;20228;-86
2021/09/06 12:56:32;;;;;;;;;;;26.10;99.90;;;;;;1867115;74;20266;-93
2021/09/06 12:59:23;;;;;;;;;;;26.10;99.90;;;;;;1777605;77;21612;-90
2021/09/06 13:02:06;;;;;;;;;;;26.20;99.90;;;;;;1769550;78;20360;-93
2021/09/06 13:22:13;;;;;;;;;;;26.20;99.90;;;;;;1806585;75;20243;-92
2021/09/06 13:27:37;;;;;;;;;;;26.20;99.90;;;;;;1639026;85;20316;-93
2021/09/06 13:34:37;;;;;;;;;;;;;;;;;;;;;
2021/09/06 13:36:41;;;;;;;;;;;26.20;99.90;;;;;;1637925;84;20141;-90
2021/09/06 13:52:39;;;;;;;;;;;26.40;99.90;;;;;;1687508;81;20262;-94
2021/09/06 13:58:09;;;;;;;;;;;26.50;99.90;;;;;;1937936;72;20249;-93
2021/09/06 14:00:42;;;;;;;;;;;26.50;99.90;;;;;;1882124;75;20232;-91
2021/09/06 14:03:12;;;;;;;;;;;26.50;99.90;;;;;;1898420;74;20199;-95
2021/09/06 14:05:42;;;;;;;;;;;26.60;99.90;;;;;;1872709;74;20153;-93
2021/09/06 14:08:14;;;;;;;;;;;26.60;99.90;;;;;;1815284;78;20217;-95
2021/09/06 14:10:45;;;;;;;;;;;26.60;99.90;;;;;;1843606;77;20217;-94
2021/09/06 14:13:17;;;;;;;;;;;26.60;99.90;;;;;;1870676;76;20474;-92
2021/09/06 14:15:49;;;;;;;;;;;26.60;99.90;;;;;;1870991;76;20161;-93
2021/09/06 14:18:18;;;;;;;;;;;26.60;99.90;;;;;;1871628;76;20167;-95
2021/09/06 14:20:50;;;;;;;;;;;26.60;99.90;;;;;;1879207;76;20171;-94
2021/09/06 14:23:20;;;;;;;;;;;26.60;99.90;;;;;;1874505;76;20133;-94
2021/09/06 14:25:49;;;;;;;;;;;26.60;99.90;;;;;;1871595;76;20219;-93
2021/09/06 14:28:19;;;;;;;;;;;26.60;99.90;;;;;;1837124;77;20225;-93
2021/09/06 14:30:53;;;;;;;;;;;26.60;99.90;;;;;;1872121;76;20258;-92
2021/09/06 14:33:29;;;;;;;;;;;26.60;99.90;;;;;;1868101;76;20227;-92
2021/09/06 14:36:01;;;;;;;;;;;26.60;99.90;;;;;;1877365;76;20238;-92
2021/09/06 14:38:39;;;;;;;;;;;26.60;99.90;;;;;;1871400;76;20135;-92
2021/09/06 14:41:09;;;;;;;;;;;26.60;99.90;;;;;;1870250;76;20497;-93
2021/09/06 14:46:38;;;;;;;;;;;26.60;99.90;;;;;;1821252;78;20179;-93
2021/09/06 14:49:07;;;;;;;;;;;26.70;99.90;;;;;;1823231;78;20513;-92
2021/09/06 14:52:05;;;;;;;;;;;26.60;99.90;;;;;;1831488;77;20178;-92
2021/09/06 14:54:37;;;;;;;;;;;26.60;99.90;;;;;;1802742;78;20186;-92
2021/09/06 14:57:07;;;;;;;;;;;26.60;99.90;;;;;;1800565;79;20300;-93
2021/09/06 14:59:44;;;;;;;;;;;26.60;99.90;;;;;;1790755;79;20466;-93
2021/09/06 15:05:44;;;;;;;;;;;26.50;99.90;;;;;;1717334;83;20243;-93
2021/09/06 15:08:28;;;;;;;;;;;26.50;99.90;;;;;;1717123;83;20254;-93
2021/09/06 15:11:22;;;;;;;;;;;26.40;99.90;;;;;;1718474;82;20151;-92
2021/09/06 15:17:40;;;;;;;;;;;26.40;99.90;;;;;;1642221;86;20183;-93
2021/09/06 15:17:40;;;;;;;;;;;26.40;99.90;;;;;;1715690;82;20233;-93
2021/09/06 15:19:57;;;;;;;;;;;26.40;99.90;;;;;;1666611;84;20223;-93
2021/09/06 15:22:26;;;;;;;;;;;26.40;99.90;;;;;;1663526;85;20233;-92
2021/09/06 15:24:56;;;;;;;;;;;26.40;99.90;;;;;;1695618;83;20294;-93
2021/09/06 15:27:32;;;;;;;;;;;26.50;99.90;;;;;;1693851;84;20213;-93
2021/09/06 15:30:26;;;;;;;;;;;26.50;99.90;;;;;;1679474;83;20235;-91
2021/09/06 15:42:27;;;;;;;;;;;26.40;99.90;;;;;;1823378;74;20198;-93
2021/09/06 15:44:56;;;;;;;;;;;26.40;99.90;;;;;;1882422;75;20172;-92
2021/09/06 15:47:35;;;;;;;;;;;26.40;99.90;;;;;;1866410;75;20183;-91
2021/09/06 15:50:07;;;;;;;;;;;26.40;99.90;;;;;;1878468;75;20086;-95
2021/09/06 15:53:02;;;;;;;;;;;26.40;99.90;;;;;;1878085;74;20176;-92
2021/09/06 15:55:36;;;;;;;;;;;26.40;99.90;;;;;;1835322;76;20201;-91
2021/09/06 15:58:06;;;;;;;;;;;26.30;99.90;;;;;;1865140;76;20181;-91
2021/09/06 16:00:38;;;;;;;;;;;26.30;99.90;;;;;;1854885;77;20166;-91
2021/09/06 16:03:08;;;;;;;;;;;26.30;99.90;;;;;;1861438;77;20240;-92
2021/09/06 16:05:38;;;;;;;;;;;26.20;99.90;;;;;;1816894;78;20200;-91
2021/09/06 16:08:08;;;;;;;;;;;26.20;99.90;;;;;;1855856;77;20219;-92
2021/09/06 16:10:38;;;;;;;;;;;26.20;99.90;;;;;;1856027;77;20172;-92
2021/09/06 16:13:09;;;;;;;;;;;26.20;99.90;;;;;;1865244;77;20203;-92
2021/09/06 16:15:39;;;;;;;;;;;26.20;99.90;;;;;;1858218;77;20211;-91
2021/09/06 16:18:09;;;;;;;;;;;26.20;99.90;;;;;;1835635;78;20183;-92
2021/09/06 16:20:41;;;;;;;;;;;26.20;99.90;;;;;;1827315;78;20174;-93
2021/09/06 16:23:12;;;;;;;;;;;26.20;99.90;;;;;;1837617;77;20272;-92
2021/09/06 16:25:43;;;;;;;;;;;26.20;99.90;;;;;;1789030;79;20263;-93
2021/09/06 16:28:12;;;;;;;;;;;26.20;99.90;;;;;;1835438;78;20200;-94
2021/09/06 16:30:42;;;;;;;;;;;26.20;99.90;;;;;;1848545;77;20195;-92
2021/09/06 16:33:12;;;;;;;;;;;26.20;99.90;;;;;;1859319;77;20194;-92
2021/09/06 16:35:42;;;;;;;;;;;26.20;99.90;;;;;;1867247;77;20316;-91
2021/09/06 16:38:11;;;;;;;;;;;26.20;99.90;;;;;;1869694;77;20227;-93